AirNav   Air Wisconsin Up To $57,000 Bonus
 
 1316 users online  

98GA Circle T Airport
Indian Springs, Georgia, USA

GOING TO INDIAN SPRINGS?


FAA INFORMATION EFFECTIVE 04 NOVEMBER 2021

Location

FAA Identifier: 98GA
Lat/Long: 33-12-20.4480N 083-54-44.6650W
33-12.340800N 083-54.744417W
33.2056800,-83.9124069
(estimated)
Elevation: 545 ft. / 166 m (estimated)
Variation: 03W (1990)
From city: 2 miles S of INDIAN SPRINGS, GA
Time zone: UTC -4 (UTC -5 during Standard Time)
Zip code: 31029

Airport Operations

Airport use: Private use. Permission required prior to landing
Activation date: 04/1993
Control tower: no
ARTCC: ATLANTA CENTER
FSS: MACON FLIGHT SERVICE STATION
Attendance: UNATNDD
Wind indicator: yes
Segmented circle: no

Airport Communications

WX AWOS-3 at 6A2 (18 nm W): 119.750 (770-227-3934)

Nearby radio navigation aids

VOR radial/distance  VOR name  Freq  Var
MCNr336/33.6MACON VORTAC114.2001E
ATLr139/36.5ATLANTA VORTAC116.9005W

 
NDB name  Hdg/Dist  Freq  Var  ID
ALCOVY197/26.337003WVOF ...- --- ..-.
PECAT106/29.431605WFFC ..-. ..-. -.-.
CULVR279/37.938004WUMB ..- -- -...

Airport Services

Runway Information

Runway 13/31

Dimensions: 2700 x 30 ft. / 823 x 9 m
Surface: turf
RUNWAY 13  RUNWAY 31
Traffic pattern: leftright
Obstructions: none30 ft. trees, 200 ft. from runway

Airport Ownership and Management from official FAA records

Ownership: Privately-owned
Owner: W. H. TORBETT
243 TORBETT RD.
FORSYTH, GA 31029
Phone 770-474-2080
Manager: W. H. TORBETT
243 TORBETT RD
FORSYTH, GA 31029
Phone 770-474-2080

Airport Operational Statistics

Aircraft based on the field: 1
Single engine airplanes: 1
    

Additional Remarks

FOR CD CTC ATLANTA APCH AT 678-364-6131.

Instrument Procedures

There are no published instrument procedures at 98GA.

Some nearby airports with instrument procedures:

6A2 - Griffin-Spalding County Airport (18 nm W)
KOPN - Thomaston-Upson County Airport (23 nm SW)
KHMP - Atlanta Speedway Airport (24 nm NW)
KCVC - Covington Municipal Airport (26 nm N)
KMAC - Macon Downtown Airport (29 nm SE)
 
Loc | Ops | Rwys | IFR | FBO | Links
Com | Nav | Svcs | Stats | Notes
Area around 98GA (Circle T Airport)
 
Road maps at: MapQuest Bing Google
 
Aerial photo
No photo
 
Sectional chart

 
Airport distance calculator
Flying to Circle T Airport? Find the distance to fly.

From to 98GA

Sunrise and sunset
Times for 28-Nov-2021
 Local
(UTC-5)
 Zulu
(UTC)
Morning civil twilight06:5311:53
Sunrise07:1912:19
Sunset17:2822:28
Evening civil twilight17:5522:55

Current date and time
Zulu (UTC)  28-Nov-2021 22:05:37
Local (UTC-5)  28-Nov-2021 17:05:37
 
METAR
K6A2 
18nm W 
282155Z AUTO 28003KT 10SM CLR 11/01 A2998 RMK AO2
KOPN 
24nm SW 
282135Z AUTO 31006KT 10SM CLR 12/02 A3000 RMK AO2
KHMP 
24nm NW 
282155Z AUTO 00000KT 10SM CLR 12/02 A3002 RMK AO2 T01230022
KCVC 
26nm N 
282139Z AUTO 26003KT 10SM CLR 13/01 A2995 RMK AO2
KMLJ 
34nm E 
282155Z AUTO 22003KT 10SM CLR 13/04 A2998 RMK AO2
KFFC 
34nm W 
282153Z AUTO 29004KT 10SM CLR 13/01 A2999 RMK AO2 SLP160 T01330011
KMCN 
34nm SE 
282153Z 28008KT 10SM SCT120 13/03 A2998 RMK AO2 SLP151 T01280028
KD73 
36nm N 
282135Z AUTO 30003KT 10SM CLR 13/01 A2995 RMK AO2 T01260010
TAF
KMCN 
34nm SE 
281738Z 2818/2918 27007KT P6SM BKN080 FM290200 28006KT P6SM FEW250 FM291400 34008KT P6SM SKC
KATL 
37nm NW 
281955Z 2820/2924 30009KT P6SM FEW200 BKN250 FM290200 32008KT P6SM FEW250 FM291500 34009G19KT P6SM SKC FM292300 31007KT P6SM SKC
KWRB 
39nm SE 
281700Z 2817/2923 VRB06KT 9999 BKN080 BKN150 QNH3001INS BECMG 2818/2819 29008KT 9999 BKN080 BKN150 QNH3010INS BECMG 2915/2916 31012KT 9999 FEW130 QNH3011INS TX13/2821Z TN03/2912Z
NOTAMs
Click for the latest NOTAMs
NOTAMs are issued by the DoD/FAA and will open in a separate window not controlled by AirNav.

 

 
 

Would you like to see your business listed on this page?

 If your business provides an interesting product or service to pilots, flight crews, aircraft, or users of the Circle T Airport, you should consider listing it here.  To start the listing process, click on the button below
 
Add a business
 

Other Pages about Circle T Airport

Update a link
 
Copyright © AirNav, LLC. All rights reserved. Privacy Policy  Contact